Belleville, Indiana
Current Conditions -  °F | °C
As of 5:54 AM on Wednesday 22 Oct 2014 (Local Time) from KIND Reporting Station
Clear Clear  
Wind Chill: 34°   Ceiling: Unl
Heat Index: 40°   Visibility: 10mi
Dew Point: 35°   Wind: 8mph
Humidity: 83%   Direction: 20°NNE
Pressure: 30.26"   Gusts: NA
Location:  39.6566°N, 86.5049°W
Report Text: KIND 220954Z 02007KT 10SM CLR 04/02 A3026 RMK AO2 SLP249 T00440017
Loading
Personal Weather Stations






























Interactive Weather Map
Tropical Storm Tracking
New forecast layout! Learn more

10-Day Weather Forecast

Advertisements
Track Severe Weather on mobile